sensor_id;sensor_type;location;lat;lon;timestamp;noise_LAeq;noise_LA_min;noise_LA_max;noise_LA01;noise_LA95
66747;Laerm;53658;50.742;10.864;2024-01-25T00:01:20;40.87;38.67;46.57;;
66747;Laerm;53658;50.742;10.864;2024-01-25T00:03:46;41.03;38.52;48.39;;
66747;Laerm;53658;50.742;10.864;2024-01-25T00:06:12;40.77;38.81;44.65;;
66747;Laerm;53658;50.742;10.864;2024-01-25T00:08:38;40.82;38.81;46.28;;
66747;Laerm;53658;50.742;10.864;2024-01-25T00:11:04;40.87;38.81;44.87;;
66747;Laerm;53658;50.742;10.864;2024-01-25T00:13:30;40.74;38.21;42.22;;
66747;Laerm;53658;50.742;10.864;2024-01-25T00:15:56;40.93;38.52;46.35;;
66747;Laerm;53658;50.742;10.864;2024-01-25T00:18:22;41.45;38.67;54.83;;
66747;Laerm;53658;50.742;10.864;2024-01-25T00:20:48;40.71;38.37;42.59;;
66747;Laerm;53658;50.742;10.864;2024-01-25T00:23:14;40.98;38.95;50.75;;
66747;Laerm;53658;50.742;10.864;2024-01-25T00:25:40;40.71;38.81;42.22;;
66747;Laerm;53658;50.742;10.864;2024-01-25T00:28:06;40.70;38.81;42.16;;
66747;Laerm;53658;50.742;10.864;2024-01-25T00:30:31;43.60;38.67;62.41;;
66747;Laerm;53658;50.742;10.864;2024-01-25T00:32:57;41.07;38.95;48.76;;
66747;Laerm;53658;50.742;10.864;2024-01-25T00:35:24;42.34;38.67;56.64;;
66747;Laerm;53658;50.742;10.864;2024-01-25T00:37:50;40.93;38.52;49.58;;
66747;Laerm;53658;50.742;10.864;2024-01-25T00:40:17;40.80;38.67;44.73;;
66747;Laerm;53658;50.742;10.864;2024-01-25T00:42:45;40.70;38.81;42.29;;
66747;Laerm;53658;50.742;10.864;2024-01-25T00:45:19;40.79;38.67;44.80;;
66747;Laerm;53658;50.742;10.864;2024-01-25T00:47:46;40.85;38.81;46.02;;
66747;Laerm;53658;50.742;10.864;2024-01-25T00:50:12;40.67;38.52;42.88;;
66747;Laerm;53658;50.742;10.864;2024-01-25T00:52:38;40.60;38.81;43.29;;
66747;Laerm;53658;50.742;10.864;2024-01-25T00:55:05;40.59;38.81;42.03;;
66747;Laerm;53658;50.742;10.864;2024-01-25T00:57:31;40.78;38.52;47.81;;
66747;Laerm;53658;50.742;10.864;2024-01-25T00:59:58;40.82;38.67;48.78;;
66747;Laerm;53658;50.742;10.864;2024-01-25T01:02:27;40.62;38.95;46.73;;
66747;Laerm;53658;50.742;10.864;2024-01-25T01:04:57;40.63;38.87;44.65;;
66747;Laerm;53658;50.742;10.864;2024-01-25T01:07:24;40.59;38.67;41.96;;
66747;Laerm;53658;50.742;10.864;2024-01-25T01:09:49;40.61;38.81;47.26;;
66747;Laerm;53658;50.742;10.864;2024-01-25T01:12:15;40.54;38.74;42.79;;
66747;Laerm;53658;50.742;10.864;2024-01-25T01:14:42;40.98;38.37;53.37;;
66747;Laerm;53658;50.742;10.864;2024-01-25T01:17:08;40.71;38.81;45.14;;
66747;Laerm;53658;50.742;10.864;2024-01-25T01:19:34;40.52;38.81;42.35;;
66747;Laerm;53658;50.742;10.864;2024-01-25T01:21:59;40.72;38.81;46.01;;
66747;Laerm;53658;50.742;10.864;2024-01-25T01:24:25;40.66;38.52;42.29;;
66747;Laerm;53658;50.742;10.864;2024-01-25T01:26:51;41.34;38.81;51.21;;
66747;Laerm;53658;50.742;10.864;2024-01-25T01:29:18;40.71;38.95;46.23;;
66747;Laerm;53658;50.742;10.864;2024-01-25T01:31:44;40.57;38.81;43.60;;
66747;Laerm;53658;50.742;10.864;2024-01-25T01:34:10;40.48;38.67;42.09;;
66747;Laerm;53658;50.742;10.864;2024-01-25T01:36:38;40.51;38.81;44.94;;
66747;Laerm;53658;50.742;10.864;2024-01-25T01:39:04;42.01;38.67;56.83;;
66747;Laerm;53658;50.742;10.864;2024-01-25T01:41:31;40.58;38.95;41.96;;
66747;Laerm;53658;50.742;10.864;2024-01-25T01:43:57;40.74;38.81;48.74;;
66747;Laerm;53658;50.742;10.864;2024-01-25T01:46:37;40.64;38.81;43.99;;
66747;Laerm;53658;50.742;10.864;2024-01-25T01:49:07;40.68;38.81;43.81;;
66747;Laerm;53658;50.742;10.864;2024-01-25T01:51:37;40.64;39.08;42.71;;
66747;Laerm;53658;50.742;10.864;2024-01-25T01:54:07;40.62;38.87;42.29;;
66747;Laerm;53658;50.742;10.864;2024-01-25T01:56:33;40.91;38.67;52.77;;
66747;Laerm;53658;50.742;10.864;2024-01-25T01:59:01;40.63;38.67;42.19;;
66747;Laerm;53658;50.742;10.864;2024-01-25T02:01:28;40.80;38.81;50.06;;
66747;Laerm;53658;50.742;10.864;2024-01-25T02:03:54;40.63;38.67;43.77;;
66747;Laerm;53658;50.742;10.864;2024-01-25T02:06:24;40.57;38.37;42.22;;
66747;Laerm;53658;50.742;10.864;2024-01-25T02:08:51;40.49;38.81;42.22;;
66747;Laerm;53658;50.742;10.864;2024-01-25T02:11:19;41.02;38.81;51.17;;
66747;Laerm;53658;50.742;10.864;2024-01-25T02:13:46;40.52;38.52;41.96;;
66747;Laerm;53658;50.742;10.864;2024-01-25T02:16:13;40.44;38.52;43.72;;
66747;Laerm;53658;50.742;10.864;2024-01-25T02:18:41;40.40;38.52;44.35;;
66747;Laerm;53658;50.742;10.864;2024-01-25T02:21:07;40.32;38.37;41.75;;
66747;Laerm;53658;50.742;10.864;2024-01-25T02:23:33;40.65;38.52;56.16;;
66747;Laerm;53658;50.742;10.864;2024-01-25T02:25:59;40.47;38.21;42.76;;
66747;Laerm;53658;50.742;10.864;2024-01-25T02:28:25;40.39;38.52;44.47;;
66747;Laerm;53658;50.742;10.864;2024-01-25T02:30:51;40.35;38.52;43.29;;
66747;Laerm;53658;50.742;10.864;2024-01-25T02:33:17;40.87;38.52;51.48;;
66747;Laerm;53658;50.742;10.864;2024-01-25T02:35:42;40.45;38.52;44.12;;
66747;Laerm;53658;50.742;10.864;2024-01-25T02:38:08;40.52;38.52;43.68;;
66747;Laerm;53658;50.742;10.864;2024-01-25T02:40:34;40.60;38.67;46.62;;
66747;Laerm;53658;50.742;10.864;2024-01-25T02:43:00;40.42;38.74;42.03;;
66747;Laerm;53658;50.742;10.864;2024-01-25T02:45:26;42.37;38.81;58.24;;
66747;Laerm;53658;50.742;10.864;2024-01-25T02:47:52;40.53;38.67;49.23;;
66747;Laerm;53658;50.742;10.864;2024-01-25T02:50:18;40.38;38.21;43.99;;
66747;Laerm;53658;50.742;10.864;2024-01-25T02:52:43;41.45;38.37;54.64;;
66747;Laerm;53658;50.742;10.864;2024-01-25T02:55:09;40.38;38.21;45.07;;
66747;Laerm;53658;50.742;10.864;2024-01-25T02:57:35;40.19;38.21;41.68;;
66747;Laerm;53658;50.742;10.864;2024-01-25T03:00:01;40.21;38.05;46.15;;
66747;Laerm;53658;50.742;10.864;2024-01-25T03:02:27;40.47;37.88;49.36;;
66747;Laerm;53658;50.742;10.864;2024-01-25T03:04:52;40.13;38.21;42.29;;
66747;Laerm;53658;50.742;10.864;2024-01-25T03:07:18;39.96;38.05;41.53;;
66747;Laerm;53658;50.742;10.864;2024-01-25T03:09:44;39.79;37.70;41.53;;
66747;Laerm;53658;50.742;10.864;2024-01-25T03:12:10;39.89;37.52;45.57;;
66747;Laerm;53658;50.742;10.864;2024-01-25T03:14:36;39.82;37.52;42.88;;
66747;Laerm;53658;50.742;10.864;2024-01-25T03:17:02;39.77;37.70;41.61;;
66747;Laerm;53658;50.742;10.864;2024-01-25T03:19:28;39.87;37.52;46.30;;
66747;Laerm;53658;50.742;10.864;2024-01-25T03:21:54;39.69;37.52;41.82;;
66747;Laerm;53658;50.742;10.864;2024-01-25T03:24:21;39.83;37.32;42.69;;
66747;Laerm;53658;50.742;10.864;2024-01-25T03:26:47;40.05;38.21;47.28;;
66747;Laerm;53658;50.742;10.864;2024-01-25T03:29:14;39.92;37.70;41.53;;
66747;Laerm;53658;50.742;10.864;2024-01-25T03:31:40;40.06;37.88;43.90;;
66747;Laerm;53658;50.742;10.864;2024-01-25T03:34:05;40.08;38.05;41.53;;
66747;Laerm;53658;50.742;10.864;2024-01-25T03:36:32;40.18;38.37;41.68;;
66747;Laerm;53658;50.742;10.864;2024-01-25T03:38:58;40.49;38.21;44.87;;
66747;Laerm;53658;50.742;10.864;2024-01-25T03:41:24;40.58;38.81;42.42;;
66747;Laerm;53658;50.742;10.864;2024-01-25T03:43:50;40.56;38.95;42.88;;
66747;Laerm;53658;50.742;10.864;2024-01-25T03:46:17;40.53;38.52;42.03;;
66747;Laerm;53658;50.742;10.864;2024-01-25T03:48:43;40.51;38.95;42.59;;
66747;Laerm;53658;50.742;10.864;2024-01-25T03:51:09;40.42;38.52;42.09;;
66747;Laerm;53658;50.742;10.864;2024-01-25T03:53:34;40.50;38.95;46.38;;
66747;Laerm;53658;50.742;10.864;2024-01-25T03:56:00;40.45;38.37;42.41;;
66747;Laerm;53658;50.742;10.864;2024-01-25T03:58:26;40.40;38.37;46.07;;
66747;Laerm;53658;50.742;10.864;2024-01-25T04:00:52;40.20;38.21;41.82;;
66747;Laerm;53658;50.742;10.864;2024-01-25T04:03:18;40.13;38.37;42.47;;
66747;Laerm;53658;50.742;10.864;2024-01-25T04:05:43;40.18;38.21;45.83;;
66747;Laerm;53658;50.742;10.864;2024-01-25T04:08:10;39.96;38.05;41.46;;
66747;Laerm;53658;50.742;10.864;2024-01-25T04:10:36;39.85;38.05;41.46;;
66747;Laerm;53658;50.742;10.864;2024-01-25T04:13:01;39.75;37.52;41.61;;
66747;Laerm;53658;50.742;10.864;2024-01-25T04:15:30;39.72;37.52;42.41;;
66747;Laerm;53658;50.742;10.864;2024-01-25T04:17:56;39.86;37.88;41.46;;
66747;Laerm;53658;50.742;10.864;2024-01-25T04:20:22;40.01;37.88;42.71;;
66747;Laerm;53658;50.742;10.864;2024-01-25T04:22:48;40.36;38.67;45.36;;
66747;Laerm;53658;50.742;10.864;2024-01-25T04:25:15;43.83;38.81;60.54;;
66747;Laerm;53658;50.742;10.864;2024-01-25T04:27:41;40.67;38.67;48.70;;
66747;Laerm;53658;50.742;10.864;2024-01-25T04:30:07;40.81;38.67;47.57;;
66747;Laerm;53658;50.742;10.864;2024-01-25T04:32:34;40.68;38.81;42.16;;
66747;Laerm;53658;50.742;10.864;2024-01-25T04:35:00;40.69;38.95;42.09;;
66747;Laerm;53658;50.742;10.864;2024-01-25T04:37:26;40.67;38.81;42.30;;
66747;Laerm;53658;50.742;10.864;2024-01-25T04:39:52;40.68;38.67;44.23;;
66747;Laerm;53658;50.742;10.864;2024-01-25T04:42:18;41.74;38.81;55.73;;
66747;Laerm;53658;50.742;10.864;2024-01-25T04:44:44;40.85;39.08;44.31;;
66747;Laerm;53658;50.742;10.864;2024-01-25T04:47:09;40.78;38.81;42.47;;
66747;Laerm;53658;50.742;10.864;2024-01-25T04:49:36;41.17;39.08;50.79;;
66747;Laerm;53658;50.742;10.864;2024-01-25T04:52:02;41.01;38.95;50.63;;
66747;Laerm;53658;50.742;10.864;2024-01-25T04:54:28;41.40;38.81;53.22;;
66747;Laerm;53658;50.742;10.864;2024-01-25T04:56:54;40.81;38.81;44.83;;
66747;Laerm;53658;50.742;10.864;2024-01-25T04:59:20;41.10;38.95;49.96;;
66747;Laerm;53658;50.742;10.864;2024-01-25T05:01:46;42.12;39.08;60.10;;
66747;Laerm;53658;50.742;10.864;2024-01-25T05:04:12;41.09;38.67;47.06;;
66747;Laerm;53658;50.742;10.864;2024-01-25T05:06:38;41.08;38.95;49.91;;
66747;Laerm;53658;50.742;10.864;2024-01-25T05:09:04;41.32;38.81;52.36;;
66747;Laerm;53658;50.742;10.864;2024-01-25T05:11:29;41.02;38.81;46.71;;
66747;Laerm;53658;50.742;10.864;2024-01-25T05:13:55;41.54;38.67;51.80;;
66747;Laerm;53658;50.742;10.864;2024-01-25T05:16:21;41.47;38.37;56.13;;
66747;Laerm;53658;50.742;10.864;2024-01-25T05:18:47;40.87;38.52;46.66;;
66747;Laerm;53658;50.742;10.864;2024-01-25T05:21:13;40.69;38.67;43.34;;
66747;Laerm;53658;50.742;10.864;2024-01-25T05:23:38;40.79;38.67;44.39;;
66747;Laerm;53658;50.742;10.864;2024-01-25T05:26:06;40.67;38.37;43.86;;
66747;Laerm;53658;50.742;10.864;2024-01-25T05:28:32;40.69;38.52;43.24;;
66747;Laerm;53658;50.742;10.864;2024-01-25T05:30:58;42.21;38.67;58.68;;
66747;Laerm;53658;50.742;10.864;2024-01-25T05:33:23;40.68;38.37;47.67;;
66747;Laerm;53658;50.742;10.864;2024-01-25T05:35:50;40.75;38.52;45.66;;
66747;Laerm;53658;50.742;10.864;2024-01-25T05:38:15;40.57;38.21;43.68;;
66747;Laerm;53658;50.742;10.864;2024-01-25T05:40:42;40.61;38.52;46.33;;
66747;Laerm;53658;50.742;10.864;2024-01-25T05:43:08;40.58;38.21;42.65;;
66747;Laerm;53658;50.742;10.864;2024-01-25T05:45:33;40.85;38.05;50.56;;
66747;Laerm;53658;50.742;10.864;2024-01-25T05:47:59;40.69;38.21;44.83;;
66747;Laerm;53658;50.742;10.864;2024-01-25T05:50:25;40.82;38.37;50.22;;
66747;Laerm;53658;50.742;10.864;2024-01-25T05:52:51;40.79;38.05;48.08;;
66747;Laerm;53658;50.742;10.864;2024-01-25T05:55:17;41.56;37.88;56.25;;
66747;Laerm;53658;50.742;10.864;2024-01-25T05:57:43;40.68;37.70;51.47;;
66747;Laerm;53658;50.742;10.864;2024-01-25T06:00:13;40.41;38.21;42.98;;
66747;Laerm;53658;50.742;10.864;2024-01-25T06:02:40;40.62;38.02;51.26;;
66747;Laerm;53658;50.742;10.864;2024-01-25T06:05:06;40.70;38.05;53.30;;
66747;Laerm;53658;50.742;10.864;2024-01-25T06:07:33;40.63;38.05;48.71;;
66747;Laerm;53658;50.742;10.864;2024-01-25T06:09:59;40.43;37.88;45.23;;
66747;Laerm;53658;50.742;10.864;2024-01-25T06:12:25;40.41;36.91;42.98;;
66747;Laerm;53658;50.742;10.864;2024-01-25T06:14:51;40.43;38.05;42.53;;
66747;Laerm;53658;50.742;10.864;2024-01-25T06:17:17;40.45;38.21;42.29;;
66747;Laerm;53658;50.742;10.864;2024-01-25T06:19:43;40.52;38.21;45.83;;
66747;Laerm;53658;50.742;10.864;2024-01-25T06:22:09;40.43;37.88;42.88;;
66747;Laerm;53658;50.742;10.864;2024-01-25T06:24:36;40.41;38.18;42.22;;
66747;Laerm;53658;50.742;10.864;2024-01-25T06:27:02;40.42;38.05;42.09;;
66747;Laerm;53658;50.742;10.864;2024-01-25T06:29:28;40.44;37.70;42.09;;
66747;Laerm;53658;50.742;10.864;2024-01-25T06:31:53;40.40;37.70;42.16;;
66747;Laerm;53658;50.742;10.864;2024-01-25T06:34:19;40.41;38.05;42.16;;
66747;Laerm;53658;50.742;10.864;2024-01-25T06:36:45;40.41;38.21;42.03;;
66747;Laerm;53658;50.742;10.864;2024-01-25T06:39:12;40.40;38.21;42.76;;
66747;Laerm;53658;50.742;10.864;2024-01-25T06:41:38;40.37;37.70;42.22;;
66747;Laerm;53658;50.742;10.864;2024-01-25T06:44:03;40.36;37.70;42.88;;
66747;Laerm;53658;50.742;10.864;2024-01-25T06:46:29;40.31;37.70;42.22;;
66747;Laerm;53658;50.742;10.864;2024-01-25T06:48:55;40.36;37.52;42.53;;
66747;Laerm;53658;50.742;10.864;2024-01-25T06:51:21;41.39;38.21;58.16;;
66747;Laerm;53658;50.742;10.864;2024-01-25T06:53:47;40.42;37.70;44.65;;
66747;Laerm;53658;50.742;10.864;2024-01-25T06:56:13;40.31;37.70;41.96;;
66747;Laerm;53658;50.742;10.864;2024-01-25T06:58:39;40.33;37.70;42.03;;
66747;Laerm;53658;50.742;10.864;2024-01-25T07:01:04;40.38;37.88;43.54;;
66747;Laerm;53658;50.742;10.864;2024-01-25T07:03:30;40.33;37.87;42.16;;
66747;Laerm;53658;50.742;10.864;2024-01-25T07:05:56;40.35;37.88;42.36;;
66747;Laerm;53658;50.742;10.864;2024-01-25T07:08:22;40.37;36.91;42.03;;
66747;Laerm;53658;50.742;10.864;2024-01-25T07:10:49;40.36;37.70;42.59;;
66747;Laerm;53658;50.742;10.864;2024-01-25T07:13:15;40.37;37.70;42.00;;
66747;Laerm;53658;50.742;10.864;2024-01-25T07:15:42;40.39;38.21;41.96;;
66747;Laerm;53658;50.742;10.864;2024-01-25T07:18:08;40.48;37.70;44.15;;
66747;Laerm;53658;50.742;10.864;2024-01-25T07:20:34;40.40;38.05;42.29;;
66747;Laerm;53658;50.742;10.864;2024-01-25T07:23:01;40.39;37.88;42.22;;
66747;Laerm;53658;50.742;10.864;2024-01-25T07:25:26;40.53;37.88;46.23;;
66747;Laerm;53658;50.742;10.864;2024-01-25T07:27:52;40.41;38.37;42.29;;
66747;Laerm;53658;50.742;10.864;2024-01-25T07:30:18;40.40;38.05;42.76;;
66747;Laerm;53658;50.742;10.864;2024-01-25T07:32:44;40.36;37.88;42.76;;
66747;Laerm;53658;50.742;10.864;2024-01-25T07:35:12;40.37;37.88;43.04;;
66747;Laerm;53658;50.742;10.864;2024-01-25T07:37:39;41.38;38.21;55.38;;
66747;Laerm;53658;50.742;10.864;2024-01-25T07:40:07;40.37;37.52;43.04;;
66747;Laerm;53658;50.742;10.864;2024-01-25T07:42:33;40.38;37.70;47.57;;
66747;Laerm;53658;50.742;10.864;2024-01-25T07:44:59;40.42;37.52;47.32;;
66747;Laerm;53658;50.742;10.864;2024-01-25T07:47:25;40.19;37.88;42.22;;
66747;Laerm;53658;50.742;10.864;2024-01-25T07:49:51;40.24;37.12;43.28;;
66747;Laerm;53658;50.742;10.864;2024-01-25T07:52:17;40.16;37.32;41.96;;
66747;Laerm;53658;50.742;10.864;2024-01-25T07:54:43;40.20;37.32;42.29;;
66747;Laerm;53658;50.742;10.864;2024-01-25T07:57:10;40.20;37.52;42.09;;
66747;Laerm;53658;50.742;10.864;2024-01-25T07:59:36;40.23;37.52;42.35;;
66747;Laerm;53658;50.742;10.864;2024-01-25T08:02:02;40.31;37.70;43.68;;
66747;Laerm;53658;50.742;10.864;2024-01-25T08:04:28;40.29;37.52;42.59;;
66747;Laerm;53658;50.742;10.864;2024-01-25T08:06:54;40.28;37.88;42.06;;
66747;Laerm;53658;50.742;10.864;2024-01-25T08:09:20;40.29;37.12;42.16;;
66747;Laerm;53658;50.742;10.864;2024-01-25T08:11:45;40.34;37.88;42.82;;
66747;Laerm;53658;50.742;10.864;2024-01-25T08:14:11;40.30;36.69;44.69;;
66747;Laerm;53658;50.742;10.864;2024-01-25T08:16:37;40.30;37.70;42.71;;
66747;Laerm;53658;50.742;10.864;2024-01-25T08:19:03;40.71;37.88;52.73;;
66747;Laerm;53658;50.742;10.864;2024-01-25T08:21:30;40.38;37.70;46.15;;
66747;Laerm;53658;50.742;10.864;2024-01-25T08:23:56;40.30;37.52;42.65;;
66747;Laerm;53658;50.742;10.864;2024-01-25T08:26:22;40.34;37.70;44.27;;
66747;Laerm;53658;50.742;10.864;2024-01-25T08:28:48;40.63;38.05;52.17;;
66747;Laerm;53658;50.742;10.864;2024-01-25T08:31:14;40.31;37.52;43.09;;
66747;Laerm;53658;50.742;10.864;2024-01-25T08:33:40;40.36;38.05;44.31;;
66747;Laerm;53658;50.742;10.864;2024-01-25T08:36:13;40.31;38.05;43.24;;
66747;Laerm;53658;50.742;10.864;2024-01-25T08:38:42;40.19;37.52;42.13;;
66747;Laerm;53658;50.742;10.864;2024-01-25T08:41:08;40.72;37.70;54.38;;
66747;Laerm;53658;50.742;10.864;2024-01-25T08:43:34;40.28;37.52;47.04;;
66747;Laerm;53658;50.742;10.864;2024-01-25T08:46:00;40.16;37.88;42.29;;
66747;Laerm;53658;50.742;10.864;2024-01-25T08:48:27;40.34;37.52;43.90;;
66747;Laerm;53658;50.742;10.864;2024-01-25T08:50:53;40.25;37.32;44.11;;
66747;Laerm;53658;50.742;10.864;2024-01-25T08:53:20;40.17;37.88;42.29;;
66747;Laerm;53658;50.742;10.864;2024-01-25T08:55:55;40.87;37.88;53.59;;
66747;Laerm;53658;50.742;10.864;2024-01-25T08:58:22;40.15;37.70;43.46;;
66747;Laerm;53658;50.742;10.864;2024-01-25T09:00:48;40.33;37.70;51.41;;
66747;Laerm;53658;50.742;10.864;2024-01-25T09:03:14;40.22;37.12;46.05;;
66747;Laerm;53658;50.742;10.864;2024-01-25T09:05:40;40.74;37.70;53.78;;
66747;Laerm;53658;50.742;10.864;2024-01-25T09:08:13;40.06;37.12;43.33;;
66747;Laerm;53658;50.742;10.864;2024-01-25T09:10:41;40.04;37.32;42.03;;
66747;Laerm;53658;50.742;10.864;2024-01-25T09:13:08;40.11;36.91;45.83;;
66747;Laerm;53658;50.742;10.864;2024-01-25T09:15:34;40.05;37.32;46.05;;
66747;Laerm;53658;50.742;10.864;2024-01-25T09:18:00;40.03;37.12;44.35;;
66747;Laerm;53658;50.742;10.864;2024-01-25T09:20:26;40.22;37.32;51.86;;
66747;Laerm;53658;50.742;10.864;2024-01-25T09:22:52;40.05;36.69;48.63;;
66747;Laerm;53658;50.742;10.864;2024-01-25T09:25:21;39.77;36.45;42.65;;
66747;Laerm;53658;50.742;10.864;2024-01-25T09:27:47;40.93;36.45;55.91;;
66747;Laerm;53658;50.742;10.864;2024-01-25T09:30:13;41.49;36.20;60.00;;
66747;Laerm;53658;50.742;10.864;2024-01-25T09:32:39;40.16;36.91;50.79;;
66747;Laerm;53658;50.742;10.864;2024-01-25T09:35:06;39.83;36.20;44.03;;
66747;Laerm;53658;50.742;10.864;2024-01-25T09:37:32;39.85;36.91;44.34;;
66747;Laerm;53658;50.742;10.864;2024-01-25T09:39:58;39.59;36.91;42.41;;
66747;Laerm;53658;50.742;10.864;2024-01-25T09:42:24;41.57;36.45;56.69;;
66747;Laerm;53658;50.742;10.864;2024-01-25T09:44:54;40.40;36.45;49.84;;
66747;Laerm;53658;50.742;10.864;2024-01-25T09:47:20;41.20;36.20;57.10;;
66747;Laerm;53658;50.742;10.864;2024-01-25T09:49:47;39.80;36.45;46.62;;
66747;Laerm;53658;50.742;10.864;2024-01-25T09:52:13;39.80;36.91;44.54;;
66747;Laerm;53658;50.742;10.864;2024-01-25T09:54:39;40.41;36.69;53.31;;
66747;Laerm;53658;50.742;10.864;2024-01-25T09:57:14;40.52;36.45;52.98;;
66747;Laerm;53658;50.742;10.864;2024-01-25T09:59:43;39.79;36.91;44.11;;
66747;Laerm;53658;50.742;10.864;2024-01-25T10:02:10;39.90;36.91;42.98;;
66747;Laerm;53658;50.742;10.864;2024-01-25T10:04:37;39.72;35.66;42.03;;
66747;Laerm;53658;50.742;10.864;2024-01-25T10:07:03;39.90;36.20;47.61;;
66747;Laerm;53658;50.742;10.864;2024-01-25T10:09:41;39.76;36.20;42.82;;
66747;Laerm;53658;50.742;10.864;2024-01-25T10:12:08;39.67;36.20;41.89;;
66747;Laerm;53658;50.742;10.864;2024-01-25T10:14:34;39.70;36.20;43.39;;
66747;Laerm;53658;50.742;10.864;2024-01-25T10:17:00;39.80;36.45;44.90;;
66747;Laerm;53658;50.742;10.864;2024-01-25T10:19:26;39.71;36.69;42.41;;
66747;Laerm;53658;50.742;10.864;2024-01-25T10:21:53;39.66;36.91;42.22;;
66747;Laerm;53658;50.742;10.864;2024-01-25T10:24:19;40.14;36.45;54.84;;
66747;Laerm;53658;50.742;10.864;2024-01-25T10:26:45;39.57;36.20;42.16;;
66747;Laerm;53658;50.742;10.864;2024-01-25T10:29:10;40.07;36.45;58.73;;
66747;Laerm;53658;50.742;10.864;2024-01-25T10:31:38;39.47;36.20;42.03;;
66747;Laerm;53658;50.742;10.864;2024-01-25T10:34:12;39.48;36.20;41.48;;
66747;Laerm;53658;50.742;10.864;2024-01-25T10:36:39;39.50;36.69;42.16;;
66747;Laerm;53658;50.742;10.864;2024-01-25T10:39:08;39.41;36.45;41.68;;
66747;Laerm;53658;50.742;10.864;2024-01-25T10:41:35;39.68;36.20;44.94;;
66747;Laerm;53658;50.742;10.864;2024-01-25T10:44:01;39.41;35.94;41.53;;
66747;Laerm;53658;50.742;10.864;2024-01-25T10:46:29;39.40;36.45;43.68;;
66747;Laerm;53658;50.742;10.864;2024-01-25T10:48:58;39.86;36.45;50.01;;
66747;Laerm;53658;50.742;10.864;2024-01-25T10:51:26;39.55;35.66;45.72;;
66747;Laerm;53658;50.742;10.864;2024-01-25T10:53:53;39.68;35.94;47.00;;
66747;Laerm;53658;50.742;10.864;2024-01-25T10:56:20;39.53;35.94;47.48;;
66747;Laerm;53658;50.742;10.864;2024-01-25T10:58:46;39.49;36.45;44.58;;
66747;Laerm;53658;50.742;10.864;2024-01-25T11:01:12;39.48;35.94;44.87;;
66747;Laerm;53658;50.742;10.864;2024-01-25T11:03:39;39.14;35.94;44.07;;
66747;Laerm;53658;50.742;10.864;2024-01-25T11:06:10;39.36;33.90;44.15;;
66747;Laerm;53658;50.742;10.864;2024-01-25T11:08:40;39.13;35.66;42.29;;
66747;Laerm;53658;50.742;10.864;2024-01-25T11:11:07;39.14;35.66;42.47;;
66747;Laerm;53658;50.742;10.864;2024-01-25T11:13:35;39.48;36.20;48.54;;
66747;Laerm;53658;50.742;10.864;2024-01-25T11:16:14;39.52;35.66;51.68;;
66747;Laerm;53658;50.742;10.864;2024-01-25T11:18:50;39.55;35.66;49.39;;
66747;Laerm;53658;50.742;10.864;2024-01-25T11:21:39;39.60;35.66;48.00;;
66747;Laerm;53658;50.742;10.864;2024-01-25T11:24:11;39.48;35.94;45.97;;
66747;Laerm;53658;50.742;10.864;2024-01-25T11:26:38;39.25;35.04;49.78;;
66747;Laerm;53658;50.742;10.864;2024-01-25T11:29:03;39.50;35.94;46.93;;
66747;Laerm;53658;50.742;10.864;2024-01-25T11:31:29;39.15;35.04;41.61;;
66747;Laerm;53658;50.742;10.864;2024-01-25T11:33:58;39.63;35.94;50.13;;
66747;Laerm;53658;50.742;10.864;2024-01-25T11:36:26;39.23;35.94;42.09;;
66747;Laerm;53658;50.742;10.864;2024-01-25T11:38:52;39.19;35.66;41.81;;
66747;Laerm;53658;50.742;10.864;2024-01-25T11:41:19;39.23;35.66;42.29;;
66747;Laerm;53658;50.742;10.864;2024-01-25T11:43:45;39.21;35.36;41.68;;
66747;Laerm;53658;50.742;10.864;2024-01-25T11:46:11;39.22;35.94;41.75;;
66747;Laerm;53658;50.742;10.864;2024-01-25T11:48:39;39.80;36.20;53.15;;
66747;Laerm;53658;50.742;10.864;2024-01-25T11:51:06;39.32;35.66;43.19;;
66747;Laerm;53658;50.742;10.864;2024-01-25T11:53:32;39.38;35.66;42.76;;
66747;Laerm;53658;50.742;10.864;2024-01-25T11:55:58;39.35;36.20;43.44;;
66747;Laerm;53658;50.742;10.864;2024-01-25T11:58:24;39.19;35.66;41.75;;
66747;Laerm;53658;50.742;10.864;2024-01-25T12:00:51;39.16;35.66;42.09;;
66747;Laerm;53658;50.742;10.864;2024-01-25T12:03:17;39.34;35.59;42.88;;
66747;Laerm;53658;50.742;10.864;2024-01-25T12:05:43;39.13;35.04;41.68;;
66747;Laerm;53658;50.742;10.864;2024-01-25T12:08:13;39.17;35.94;41.82;;
66747;Laerm;53658;50.742;10.864;2024-01-25T12:10:41;39.17;35.36;41.38;;
66747;Laerm;53658;50.742;10.864;2024-01-25T12:13:08;39.15;35.94;41.82;;
66747;Laerm;53658;50.742;10.864;2024-01-25T12:15:35;39.17;35.04;41.46;;
66747;Laerm;53658;50.742;10.864;2024-01-25T12:18:02;39.52;36.20;43.86;;
66747;Laerm;53658;50.742;10.864;2024-01-25T12:20:31;39.13;35.66;41.68;;
66747;Laerm;53658;50.742;10.864;2024-01-25T12:22:58;39.17;35.94;42.03;;
66747;Laerm;53658;50.742;10.864;2024-01-25T12:25:24;39.19;35.01;41.68;;
66747;Laerm;53658;50.742;10.864;2024-01-25T12:27:50;39.20;35.04;41.38;;
66747;Laerm;53658;50.742;10.864;2024-01-25T12:30:16;39.15;35.66;41.53;;
66747;Laerm;53658;50.742;10.864;2024-01-25T12:32:41;39.19;35.36;44.03;;
66747;Laerm;53658;50.742;10.864;2024-01-25T12:35:08;39.12;35.66;41.53;;
66747;Laerm;53658;50.742;10.864;2024-01-25T12:37:35;39.28;35.36;43.51;;
66747;Laerm;53658;50.742;10.864;2024-01-25T12:40:00;39.09;35.66;41.53;;
66747;Laerm;53658;50.742;10.864;2024-01-25T12:42:28;39.44;35.94;45.17;;
66747;Laerm;53658;50.742;10.864;2024-01-25T12:44:53;39.25;35.66;43.39;;
66747;Laerm;53658;50.742;10.864;2024-01-25T12:47:22;39.12;35.36;41.96;;
66747;Laerm;53658;50.742;10.864;2024-01-25T12:49:48;39.20;35.66;44.97;;
66747;Laerm;53658;50.742;10.864;2024-01-25T12:52:15;39.22;35.94;43.77;;
66747;Laerm;53658;50.742;10.864;2024-01-25T12:54:41;39.03;35.66;41.30;;
66747;Laerm;53658;50.742;10.864;2024-01-25T12:57:07;39.08;36.20;41.61;;
66747;Laerm;53658;50.742;10.864;2024-01-25T12:59:35;39.05;35.36;41.61;;
66747;Laerm;53658;50.742;10.864;2024-01-25T13:02:02;39.01;35.04;41.30;;
66747;Laerm;53658;50.742;10.864;2024-01-25T13:04:28;39.02;35.66;41.14;;
66747;Laerm;53658;50.742;10.864;2024-01-25T13:06:55;39.12;35.94;42.22;;
66747;Laerm;53658;50.742;10.864;2024-01-25T13:09:24;39.67;35.36;47.68;;
66747;Laerm;53658;50.742;10.864;2024-01-25T13:11:50;39.23;35.94;44.07;;
66747;Laerm;53658;50.742;10.864;2024-01-25T13:14:19;39.15;35.94;43.24;;
66747;Laerm;53658;50.742;10.864;2024-01-25T13:16:45;39.28;35.66;46.33;;
66747;Laerm;53658;50.742;10.864;2024-01-25T13:19:11;39.09;36.10;41.53;;
66747;Laerm;53658;50.742;10.864;2024-01-25T13:21:37;39.95;35.94;48.40;;
66747;Laerm;53658;50.742;10.864;2024-01-25T13:24:05;39.33;34.69;46.38;;
66747;Laerm;53658;50.742;10.864;2024-01-25T13:26:31;39.10;35.36;42.03;;
66747;Laerm;53658;50.742;10.864;2024-01-25T13:28:57;39.23;35.66;43.72;;